Time;durP1;ratioP1;P1;durP2;ratioP2;P2;SDS_P1;SDS_P2;PMS_P1;PMS_P2;Temp;Humidity;BMP_temperature;BMP_pressure;BME280_temperature;BME280_humidity;BME280_pressure;Samples;Min_cycle;Max_cycle;Signal;HPM_P1;HPM_P2
2023/10/09 00:00:35;;;;;;;6.97;3.67;;;14.10;99.90;;;;;;5055537;28;20414;-71
2023/10/09 00:03:06;;;;;;;7.17;4.17;;;14.00;99.90;;;;;;5056525;28;20429;-71
2023/10/09 00:05:45;;;;;;;6.40;4.20;;;14.00;99.90;;;;;;5056308;28;20453;-71
2023/10/09 00:08:19;;;;;;;5.03;4.00;;;14.00;99.90;;;;;;5056222;28;20419;-71
2023/10/09 00:10:52;;;;;;;7.87;4.43;;;14.00;99.90;;;;;;5056274;28;20509;-71
2023/10/09 00:13:30;;;;;;;6.40;4.47;;;14.00;99.90;;;;;;5056573;28;20418;-71
2023/10/09 00:16:08;;;;;;;6.90;4.43;;;14.00;99.90;;;;;;5054659;28;20466;-71
2023/10/09 00:18:38;;;;;;;6.43;3.93;;;14.00;99.90;;;;;;5054669;28;20484;-71
2023/10/09 00:21:12;;;;;;;5.73;3.93;;;14.00;99.90;;;;;;5055892;28;20525;-71
2023/10/09 00:23:41;;;;;;;8.20;5.00;;;14.00;99.90;;;;;;5054716;28;20448;-71
2023/10/09 00:26:11;;;;;;;5.10;4.20;;;14.00;99.90;;;;;;5054492;28;20458;-71
2023/10/09 00:28:50;;;;;;;8.87;4.90;;;14.00;99.90;;;;;;5055775;28;20458;-71
2023/10/09 00:31:28;;;;;;;7.00;4.13;;;14.00;99.90;;;;;;5055709;28;20446;-71
2023/10/09 00:34:03;;;;;;;10.63;4.33;;;14.00;99.90;;;;;;5055988;28;20427;-70
2023/10/09 00:36:32;;;;;;;5.87;5.27;;;14.00;99.90;;;;;;5056194;28;20523;-71
2023/10/09 00:39:12;;;;;;;7.00;4.20;;;14.00;99.90;;;;;;5054206;28;20469;-71
2023/10/09 00:41:41;;;;;;;4.67;3.70;;;14.00;99.90;;;;;;5054328;28;20438;-71
2023/10/09 00:44:10;;;;;;;7.80;4.53;;;13.90;99.90;;;;;;5054189;28;20504;-71
2023/10/09 00:46:42;;;;;;;6.70;4.27;;;13.90;99.90;;;;;;5054114;28;20544;-71
2023/10/09 00:49:15;;;;;;;8.63;4.23;;;13.90;99.90;;;;;;5055442;28;20414;-71
2023/10/09 00:51:56;;;;;;;7.03;4.00;;;13.90;99.90;;;;;;5053941;28;20458;-71
2023/10/09 00:54:35;;;;;;;4.13;3.73;;;13.90;99.90;;;;;;5055317;28;20472;-71
2023/10/09 00:57:07;;;;;;;6.73;3.80;;;13.90;99.90;;;;;;5055618;28;20428;-71
2023/10/09 00:59:38;;;;;;;7.23;4.20;;;13.90;99.90;;;;;;5053793;28;20466;-71
2023/10/09 01:02:07;;;;;;;4.93;4.00;;;13.90;99.90;;;;;;5055306;28;20505;-71
2023/10/09 01:04:41;;;;;;;7.73;4.60;;;13.90;99.90;;;;;;5053801;28;20454;-70
2023/10/09 01:07:10;;;;;;;7.60;4.33;;;13.90;99.90;;;;;;5053763;28;20541;-70
2023/10/09 01:09:43;;;;;;;5.90;3.67;;;13.90;99.90;;;;;;5054964;28;20442;-70
2023/10/09 01:12:16;;;;;;;5.07;4.07;;;13.90;99.90;;;;;;5053776;28;20431;-70
2023/10/09 01:14:46;;;;;;;6.27;3.70;;;13.90;99.90;;;;;;5055168;28;20458;-70
2023/10/09 01:17:29;;;;;;;6.03;5.00;;;13.90;99.90;;;;;;5053539;28;20537;-70
2023/10/09 01:20:03;;;;;;;6.20;4.57;;;13.90;99.90;;;;;;5053493;28;20559;-70
2023/10/09 01:22:31;;;;;;;5.23;3.80;;;13.80;99.90;;;;;;5053509;28;20465;-70
2023/10/09 01:25:05;;;;;;;5.43;4.37;;;13.80;99.90;;;;;;5053399;28;20565;-70
2023/10/09 01:27:34;;;;;;;7.40;4.67;;;13.80;99.90;;;;;;5053318;28;21028;-70
2023/10/09 01:30:02;;;;;;;5.00;4.50;;;13.80;99.90;;;;;;5054898;28;20434;-70
2023/10/09 01:32:30;;;;;;;4.97;4.50;;;13.80;99.90;;;;;;5053358;28;20449;-70
2023/10/09 01:34:59;;;;;;;5.40;4.63;;;13.80;99.90;;;;;;5054464;28;20454;-70
2023/10/09 01:37:28;;;;;;;4.50;3.93;;;13.80;99.90;;;;;;5053097;28;20477;-70
2023/10/09 01:39:59;;;;;;;4.97;4.13;;;13.80;99.90;;;;;;5054306;28;20466;-70
2023/10/09 01:42:34;;;;;;;5.40;4.40;;;13.80;99.90;;;;;;5053096;28;20500;-70
2023/10/09 01:45:15;;;;;;;5.10;4.60;;;13.80;99.90;;;;;;5053003;28;20568;-70
2023/10/09 01:47:51;;;;;;;6.60;5.00;;;13.80;99.90;;;;;;5053054;28;20469;-70
2023/10/09 01:50:22;;;;;;;5.43;4.63;;;13.80;99.90;;;;;;5052892;28;20442;-70
2023/10/09 01:52:51;;;;;;;5.97;4.73;;;13.80;99.90;;;;;;5054107;28;20846;-70
2023/10/09 01:55:29;;;;;;;7.43;4.97;;;13.80;99.90;;;;;;5052827;28;20515;-70
2023/10/09 01:58:01;;;;;;;6.40;4.77;;;13.80;99.90;;;;;;5052756;28;20440;-70
2023/10/09 02:00:30;;;;;;;6.07;4.67;;;13.70;99.90;;;;;;5052628;28;20520;-70
2023/10/09 02:03:02;;;;;;;4.67;4.13;;;13.70;99.90;;;;;;5054399;28;20489;-70
2023/10/09 02:05:33;;;;;;;6.20;4.60;;;13.70;99.90;;;;;;5052806;28;20577;-70
2023/10/09 02:08:03;;;;;;;5.80;5.20;;;13.70;99.90;;;;;;5052655;28;20438;-70
2023/10/09 02:10:32;;;;;;;5.60;4.50;;;13.70;99.90;;;;;;5052659;28;20852;-71
2023/10/09 02:13:07;;;;;;;6.80;5.07;;;13.70;99.90;;;;;;5052893;28;20967;-70
2023/10/09 02:15:51;;;;;;;6.87;5.10;;;13.70;99.90;;;;;;5052541;28;20481;-71
2023/10/09 02:18:27;;;;;;;8.00;5.30;;;13.70;99.90;;;;;;5052420;28;20438;-70
2023/10/09 02:21:13;;;;;;;5.70;4.83;;;13.70;99.90;;;;;;5052335;28;20492;-70
2023/10/09 02:23:46;;;;;;;9.40;4.80;;;13.70;99.90;;;;;;5052515;28;20518;-70
2023/10/09 02:26:19;;;;;;;5.37;4.87;;;13.70;99.90;;;;;;5052201;28;20520;-70
2023/10/09 02:28:58;;;;;;;8.00;5.83;;;13.70;99.90;;;;;;5052254;28;20438;-70
2023/10/09 02:31:35;;;;;;;6.70;6.00;;;13.70;99.90;;;;;;5052502;28;20508;-70
2023/10/09 02:34:07;;;;;;;8.00;6.00;;;13.60;99.90;;;;;;5053715;28;20417;-70
2023/10/09 02:36:38;;;;;;;7.30;5.57;;;13.60;99.90;;;;;;5052098;28;20841;-70
2023/10/09 02:39:07;;;;;;;7.23;6.03;;;13.60;99.90;;;;;;5053856;28;20541;-70
2023/10/09 02:41:45;;;;;;;12.80;6.20;;;13.60;99.90;;;;;;5053323;28;20943;-70
2023/10/09 02:44:24;;;;;;;7.40;6.70;;;13.60;99.90;;;;;;5053460;28;20422;-70
2023/10/09 02:46:57;;;;;;;11.83;5.83;;;13.50;99.90;;;;;;5053815;28;20756;-70
2023/10/09 02:49:26;;;;;;;6.00;5.30;;;13.50;99.90;;;;;;5053853;28;20415;-70
2023/10/09 02:51:54;;;;;;;8.37;6.33;;;13.40;99.90;;;;;;5052020;28;20452;-69
2023/10/09 02:54:35;;;;;;;7.80;6.37;;;13.40;99.90;;;;;;5053168;28;20445;-70
2023/10/09 02:57:07;;;;;;;6.77;5.90;;;13.40;99.90;;;;;;5053426;28;20467;-70
2023/10/09 02:59:44;;;;;;;7.30;6.17;;;13.40;99.90;;;;;;5051843;28;20457;-70
2023/10/09 03:02:13;;;;;;;7.50;5.90;;;13.40;99.90;;;;;;5053365;28;20872;-70
2023/10/09 03:04:41;;;;;;;6.10;5.33;;;13.40;99.90;;;;;;5051959;28;20442;-70
2023/10/09 03:07:10;;;;;;;8.07;5.90;;;13.40;99.90;;;;;;5053381;28;20458;-70
2023/10/09 03:09:40;;;;;;;6.10;5.50;;;13.40;99.90;;;;;;5053297;28;20545;-70
2023/10/09 03:12:12;;;;;;;6.80;6.07;;;13.40;99.90;;;;;;5051814;28;20438;-70
2023/10/09 03:14:42;;;;;;;9.47;7.50;;;13.40;99.90;;;;;;5051997;28;20445;-70
2023/10/09 03:17:11;;;;;;;8.57;6.83;;;13.40;99.90;;;;;;5053285;28;20545;-70
2023/10/09 03:19:43;;;;;;;6.77;6.17;;;13.40;99.90;;;;;;5052893;28;20466;-70
2023/10/09 03:22:11;;;;;;;7.17;5.73;;;13.50;99.90;;;;;;5051713;28;20496;-70
2023/10/09 03:24:43;;;;;;;10.53;9.43;;;13.50;99.90;;;;;;5051819;28;20553;-69
2023/10/09 03:27:15;;;;;;;10.03;7.80;;;13.50;99.90;;;;;;5051652;28;20426;-70
2023/10/09 03:29:49;;;;;;;8.67;7.73;;;13.50;99.90;;;;;;5051809;28;20973;-70
2023/10/09 03:32:19;;;;;;;8.20;5.87;;;13.50;99.90;;;;;;5052884;28;20509;-69
2023/10/09 03:34:49;;;;;;;7.40;5.90;;;13.50;99.90;;;;;;5053895;28;20466;-69
2023/10/09 03:37:33;;;;;;;8.93;6.07;;;13.60;99.90;;;;;;5056670;28;20947;-70
2023/10/09 03:40:01;;;;;;;7.60;5.60;;;13.60;99.90;;;;;;5056882;28;20454;-69
2023/10/09 03:42:30;;;;;;;6.90;5.97;;;13.60;99.90;;;;;;5056903;28;20434;-69
2023/10/09 03:44:59;;;;;;;9.90;6.73;;;13.60;99.90;;;;;;5056957;28;20458;-69
2023/10/09 03:47:28;;;;;;;7.53;6.73;;;13.60;99.90;;;;;;5056523;28;20457;-70
2023/10/09 03:50:02;;;;;;;8.70;7.10;;;13.60;99.90;;;;;;5056428;28;20438;-70
2023/10/09 03:52:30;;;;;;;10.43;6.83;;;13.60;99.90;;;;;;5056371;28;21045;-70
2023/10/09 03:55:00;;;;;;;10.17;7.03;;;13.60;99.90;;;;;;5056272;28;20587;-69
2023/10/09 03:57:28;;;;;;;12.90;7.13;;;13.60;99.90;;;;;;5056582;28;20437;-69
2023/10/09 03:59:57;;;;;;;9.67;7.47;;;13.60;99.90;;;;;;5056464;28;20469;-69
2023/10/09 04:02:27;;;;;;;7.90;7.10;;;13.60;99.90;;;;;;5056173;28;20959;-69
2023/10/09 04:04:55;;;;;;;8.83;7.27;;;13.60;99.90;;;;;;5056131;28;21001;-69
2023/10/09 04:07:23;;;;;;;9.93;8.23;;;13.60;99.90;;;;;;5056369;28;20442;-69
2023/10/09 04:10:12;;;;;;;9.97;8.10;;;13.60;99.90;;;;;;5054796;28;20449;-69
2023/10/09 04:12:41;;;;;;;10.17;8.10;;;13.60;99.90;;;;;;5056179;28;20444;-69
2023/10/09 04:15:15;;;;;;;9.83;8.40;;;13.60;99.90;;;;;;5055974;28;20457;-69
2023/10/09 04:17:44;;;;;;;10.53;8.13;;;13.60;99.90;;;;;;5054891;28;20551;-69
2023/10/09 04:20:47;;;;;;;12.07;9.10;;;13.60;99.90;;;;;;5055791;28;20465;-69
2023/10/09 04:23:16;;;;;;;10.50;8.80;;;13.60;99.90;;;;;;5055879;28;20444;-69
2023/10/09 04:25:45;;;;;;;10.17;9.17;;;13.60;99.90;;;;;;5054505;28;20462;-69
2023/10/09 04:28:19;;;;;;;15.00;9.30;;;13.60;99.90;;;;;;5055766;28;20426;-69
2023/10/09 04:30:53;;;;;;;12.20;10.80;;;13.60;99.90;;;;;;5054462;28;20430;-69
2023/10/09 04:33:42;;;;;;;11.97;10.67;;;13.60;99.90;;;;;;5056251;28;20419;-69
2023/10/09 04:36:21;;;;;;;12.90;10.77;;;13.50;99.90;;;;;;5055601;28;20457;-69
2023/10/09 04:39:16;;;;;;;16.37;13.10;;;13.50;99.90;;;;;;5055564;28;20883;-69
2023/10/09 04:42:17;;;;;;;16.80;13.60;;;13.50;99.90;;;;;;5054204;28;20493;-68
2023/10/09 04:44:59;;;;;;;20.60;14.40;;;13.50;99.90;;;;;;5055122;28;20438;-69
2023/10/09 04:47:36;;;;;;;18.67;14.63;;;13.50;99.90;;;;;;5055388;28;20422;-69
2023/10/09 04:50:09;;;;;;;17.23;14.93;;;13.50;99.90;;;;;;5054146;28;20465;-69
2023/10/09 04:52:52;;;;;;;20.23;16.60;;;13.50;99.90;;;;;;5055141;28;20508;-69
2023/10/09 04:55:24;;;;;;;19.13;16.97;;;13.50;99.90;;;;;;5055446;28;20458;-69
2023/10/09 04:58:02;;;;;;;25.83;18.77;;;13.50;99.90;;;;;;5055496;28;20422;-68
2023/10/09 05:03:29;;;;;;;23.57;17.90;;;13.50;99.90;;;;;;5054061;28;20950;-69
2023/10/09 05:06:20;;;;;;;23.70;18.50;;;13.50;99.90;;;;;;5054964;28;21042;-69
2023/10/09 05:08:48;;;;;;;25.37;19.90;;;13.50;99.90;;;;;;5055038;28;20423;-69
2023/10/09 05:11:34;;;;;;;29.60;21.33;;;13.50;99.90;;;;;;5054916;28;20434;-69
2023/10/09 05:14:14;;;;;;;24.60;20.17;;;13.50;99.90;;;;;;5055207;28;20907;-69
2023/10/09 05:16:54;;;;;;;25.70;21.40;;;13.50;99.90;;;;;;5055067;28;20561;-69
2023/10/09 05:19:41;;;;;;;25.90;21.43;;;13.50;99.90;;;;;;5053556;28;20533;-69
2023/10/09 05:22:29;;;;;;;28.30;21.40;;;13.50;99.90;;;;;;5053472;28;20962;-69
2023/10/09 05:24:58;;;;;;;30.73;21.60;;;13.50;99.90;;;;;;5055273;28;20482;-69
2023/10/09 05:30:27;;;;;;;31.37;23.20;;;13.50;99.90;;;;;;5055315;28;20449;-69
2023/10/09 05:32:59;;;;;;;28.50;22.13;;;13.50;99.90;;;;;;5054826;28;20465;-69
2023/10/09 05:35:39;;;;;;;30.83;24.30;;;13.50;99.90;;;;;;5053431;28;20466;-69
2023/10/09 05:38:23;;;;;;;33.53;23.33;;;13.60;99.90;;;;;;5055014;28;20422;-69
2023/10/09 05:40:53;;;;;;;38.03;26.57;;;13.60;99.90;;;;;;5053051;28;20469;-69
2023/10/09 05:46:19;;;;;;;36.87;27.27;;;13.60;99.90;;;;;;4996236;28;20468;-69
2023/10/09 05:48:54;;;;;;;37.70;26.43;;;13.60;99.90;;;;;;5044773;28;20449;-69
2023/10/09 05:54:23;;;;;;;36.80;27.03;;;13.60;99.90;;;;;;5053015;28;20441;-69
2023/10/09 05:57:45;;;;;;;40.07;27.73;;;13.60;99.90;;;;;;5053690;28;20418;-69
2023/10/09 06:05:51;;;;;;;44.73;29.93;;;13.70;99.90;;;;;;5054227;28;20457;-70
2023/10/09 06:08:24;;;;;;;46.00;31.77;;;13.70;99.90;;;;;;5052745;28;20449;-69
2023/10/09 06:11:38;;;;;;;40.10;31.10;;;13.70;99.90;;;;;;5054248;28;20421;-69
2023/10/09 06:13:46;;;;;;;45.20;32.27;;;13.70;99.90;;;;;;5053686;28;20437;-69
2023/10/09 06:16:29;;;;;;;44.77;32.70;;;13.70;99.90;;;;;;5053812;28;20458;-69
2023/10/09 06:19:11;;;;;;;45.70;31.50;;;13.80;99.90;;;;;;5052551;28;20449;-69
2023/10/09 06:21:40;;;;;;;44.13;30.90;;;13.80;99.90;;;;;;5052322;28;21013;-69
2023/10/09 06:24:18;;;;;;;49.50;34.60;;;13.80;99.90;;;;;;5053838;28;20437;-70
2023/10/09 06:29:38;;;;;;;50.70;36.30;;;13.80;99.90;;;;;;5054325;28;20468;-69
2023/10/09 06:35:21;;;;;;;53.47;38.70;;;13.90;99.90;;;;;;5029247;28;20477;-69
2023/10/09 06:43:28;;;;;;;56.23;39.83;;;13.90;99.90;;;;;;5053396;28;20423;-69
2023/10/09 06:46:27;;;;;;;51.53;38.00;;;14.00;99.90;;;;;;5053447;28;20823;-69
2023/10/09 06:48:46;;;;;;;61.60;41.70;;;14.00;99.90;;;;;;5053313;28;20469;-69
2023/10/09 06:51:40;;;;;;;59.17;39.97;;;14.00;99.90;;;;;;5053368;28;20460;-70
2023/10/09 06:54:06;;;;;;;54.20;40.30;;;14.10;99.90;;;;;;5053303;28;20445;-69
2023/10/09 07:00:15;;;;;;;59.20;41.30;;;14.10;99.90;;;;;;5053365;28;20930;-69
2023/10/09 07:02:36;;;;;;;59.07;41.83;;;14.10;99.90;;;;;;5053406;28;20535;-70
2023/10/09 07:05:10;;;;;;;62.03;41.47;;;14.10;99.90;;;;;;5053583;28;20450;-69
2023/10/09 07:07:50;;;;;;;53.60;39.60;;;14.20;99.90;;;;;;5054157;28;20422;-69
2023/10/09 07:10:32;;;;;;;58.30;42.40;;;14.20;99.90;;;;;;5057817;28;20456;-69
2023/10/09 07:13:01;;;;;;;64.80;42.47;;;14.20;99.90;;;;;;5057443;28;20414;-69
2023/10/09 07:18:23;;;;;;;59.17;43.50;;;14.20;99.90;;;;;;5057558;28;20805;-69
2023/10/09 07:21:01;;;;;;;61.87;43.23;;;14.20;99.90;;;;;;5055874;28;21014;-69
2023/10/09 07:23:32;;;;;;;61.13;41.70;;;14.30;99.90;;;;;;5057551;28;20422;-69
2023/10/09 07:26:23;;;;;;;60.60;40.97;;;14.30;99.90;;;;;;5057120;28;20954;-69
2023/10/09 07:29:00;;;;;;;56.37;42.03;;;14.30;99.90;;;;;;5058062;28;20433;-70
2023/10/09 07:31:39;;;;;;;66.27;45.57;;;14.30;99.90;;;;;;5057277;28;20899;-69
2023/10/09 07:36:56;;;;;;;60.07;41.03;;;14.40;99.90;;;;;;5055579;28;20442;-70
2023/10/09 07:39:34;;;;;;;65.23;43.63;;;14.40;99.90;;;;;;5056989;28;20444;-69
2023/10/09 07:42:19;;;;;;;63.70;41.50;;;14.40;99.90;;;;;;5055601;28;20466;-69
2023/10/09 07:44:52;;;;;;;56.97;42.50;;;14.50;99.90;;;;;;5057433;28;20450;-69
2023/10/09 07:47:33;;;;;;;61.50;43.00;;;14.50;99.90;;;;;;5057468;28;20509;-69
2023/10/09 07:50:02;;;;;;;57.37;40.97;;;14.50;99.90;;;;;;5055717;28;20445;-69
2023/10/09 07:52:30;;;;;;;56.90;39.73;;;14.50;99.90;;;;;;5056659;28;20947;-69
2023/10/09 07:55:06;;;;;;;58.13;40.57;;;14.60;99.90;;;;;;5056830;28;20862;-69
2023/10/09 07:57:42;;;;;;;67.70;42.23;;;14.60;99.90;;;;;;5056714;28;20396;-69
2023/10/09 08:00:36;;;;;;;57.03;39.90;;;14.70;99.90;;;;;;5055267;28;20443;-69
2023/10/09 08:03:23;;;;;;;58.40;40.83;;;14.60;99.90;;;;;;5055036;28;20891;-70
2023/10/09 08:06:06;;;;;;;57.10;41.00;;;14.70;99.90;;;;;;5056202;28;20958;-70
2023/10/09 08:09:16;;;;;;;54.07;39.60;;;14.70;99.90;;;;;;5056804;28;20860;-70
2023/10/09 08:17:13;;;;;;;63.07;38.67;;;14.80;99.90;;;;;;5055055;28;20496;-69
2023/10/09 08:19:58;;;;;;;58.60;39.77;;;14.90;99.90;;;;;;5054177;28;20470;-69
2023/10/09 08:22:42;;;;;;;55.77;39.47;;;14.90;99.90;;;;;;5056126;28;20810;-70
2023/10/09 08:25:27;;;;;;;51.70;38.57;;;14.90;99.90;;;;;;5055108;28;20552;-70
2023/10/09 08:27:57;;;;;;;58.90;38.27;;;14.90;99.90;;;;;;5056513;28;20426;-69
2023/10/09 08:30:40;;;;;;;52.83;38.20;;;14.90;99.90;;;;;;5056268;28;20446;-69
2023/10/09 08:36:04;;;;;;;57.63;38.60;;;15.00;99.90;;;;;;5054615;28;20545;-69
2023/10/09 08:38:36;;;;;;;58.60;39.03;;;15.00;99.90;;;;;;5056008;28;20540;-69
2023/10/09 08:41:15;;;;;;;56.10;37.20;;;15.00;99.90;;;;;;5055676;28;20389;-69
2023/10/09 08:43:50;;;;;;;56.00;38.17;;;15.10;99.90;;;;;;5055881;28;20464;-69
2023/10/09 08:46:23;;;;;;;52.97;36.40;;;15.10;99.90;;;;;;5055838;28;20461;-69
2023/10/09 08:48:52;;;;;;;53.90;38.60;;;15.10;99.90;;;;;;5055597;28;20442;-69
2023/10/09 08:51:21;;;;;;;51.90;35.90;;;15.10;99.90;;;;;;5055690;28;20450;-69
2023/10/09 08:53:49;;;;;;;50.70;37.20;;;15.10;99.90;;;;;;5056237;28;20465;-70
2023/10/09 08:56:22;;;;;;;54.60;36.17;;;15.20;99.90;;;;;;5054165;28;20457;-70
2023/10/09 08:58:55;;;;;;;55.33;35.93;;;15.20;99.90;;;;;;5055982;28;20429;-69
2023/10/09 09:01:24;;;;;;;54.13;36.63;;;15.20;99.90;;;;;;5054692;28;20454;-69
2023/10/09 09:03:55;;;;;;;46.40;33.40;;;15.30;99.90;;;;;;5055659;28;20979;-69
2023/10/09 09:06:25;;;;;;;61.57;36.47;;;15.30;99.90;;;;;;5055672;28;20877;-70
2023/10/09 09:09:13;;;;;;;48.10;33.70;;;15.30;99.90;;;;;;5055985;28;20423;-68
2023/10/09 09:11:48;;;;;;;51.33;35.23;;;15.30;99.90;;;;;;5055897;28;20855;-69
2023/10/09 09:14:21;;;;;;;52.77;35.27;;;15.30;99.90;;;;;;5054164;28;20441;-68
2023/10/09 09:16:49;;;;;;;47.80;33.53;;;15.40;99.90;;;;;;5055539;28;20522;-68
2023/10/09 09:19:20;;;;;;;46.10;32.10;;;15.40;99.90;;;;;;5055348;28;20493;-68
2023/10/09 09:21:59;;;;;;;42.77;31.03;;;15.40;99.90;;;;;;5055724;28;20446;-68
2023/10/09 09:24:30;;;;;;;41.33;32.07;;;15.50;99.90;;;;;;5055665;28;20385;-69
2023/10/09 09:27:09;;;;;;;43.33;32.20;;;15.50;99.90;;;;;;5053924;28;20922;-69
2023/10/09 09:29:52;;;;;;;49.10;30.73;;;15.50;99.90;;;;;;5055309;28;20476;-69
2023/10/09 09:32:35;;;;;;;47.67;33.20;;;15.50;99.90;;;;;;5052499;28;20439;-69
2023/10/09 09:35:05;;;;;;;39.70;30.73;;;15.60;99.90;;;;;;5053542;28;20462;-69
2023/10/09 09:37:50;;;;;;;47.90;32.43;;;15.60;99.90;;;;;;5055039;28;20436;-69
2023/10/09 09:40:29;;;;;;;42.73;31.23;;;15.60;99.90;;;;;;5054922;28;20419;-69
2023/10/09 09:43:06;;;;;;;42.00;31.10;;;15.60;99.90;;;;;;5054917;28;20458;-69
2023/10/09 09:45:36;;;;;;;37.10;27.97;;;15.60;99.90;;;;;;5054709;28;20552;-68
2023/10/09 09:48:06;;;;;;;39.87;28.43;;;15.60;99.90;;;;;;5054563;28;20438;-69
2023/10/09 09:50:38;;;;;;;44.43;30.37;;;15.70;99.90;;;;;;5053520;28;20485;-69
2023/10/09 09:53:11;;;;;;;41.80;28.77;;;15.70;99.90;;;;;;5054897;28;20518;-69
2023/10/09 09:55:43;;;;;;;40.83;27.40;;;15.70;99.90;;;;;;5054871;28;20433;-69
2023/10/09 09:58:18;;;;;;;42.23;28.47;;;15.70;99.90;;;;;;5054561;28;20418;-69
2023/10/09 10:00:52;;;;;;;37.27;27.80;;;15.70;99.90;;;;;;5054897;28;20418;-69
2023/10/09 10:03:25;;;;;;;39.30;27.97;;;15.80;99.90;;;;;;5054407;28;20454;-69
2023/10/09 10:05:56;;;;;;;45.53;30.47;;;15.80;99.90;;;;;;5054613;28;20545;-69
2023/10/09 10:08:32;;;;;;;41.00;29.30;;;15.80;99.90;;;;;;5054158;28;20435;-69
2023/10/09 10:11:05;;;;;;;34.23;27.03;;;15.80;99.90;;;;;;5054461;28;20417;-68
2023/10/09 10:14:10;;;;;;;38.00;26.47;;;15.80;99.90;;;;;;5052870;28;20469;-69
2023/10/09 10:17:05;;;;;;;35.17;26.93;;;15.90;99.90;;;;;;5052142;28;20479;-69
2023/10/09 10:20:25;;;;;;;33.43;29.00;;;15.90;99.90;;;;;;5053924;28;20851;-69
2023/10/09 10:22:52;;;;;;;41.30;29.07;;;15.90;99.90;;;;;;5053501;28;20536;-69
2023/10/09 10:25:42;;;;;;;34.27;24.87;;;15.90;99.90;;;;;;5054115;28;20428;-70
2023/10/09 10:28:38;;;;;;;39.10;26.87;;;15.90;99.90;;;;;;5054148;28;20404;-69
2023/10/09 10:31:09;;;;;;;29.13;23.93;;;16.00;99.90;;;;;;5053811;28;20404;-69
2023/10/09 10:34:10;;;;;;;31.83;24.53;;;16.00;99.90;;;;;;5052515;28;20458;-69
2023/10/09 10:36:42;;;;;;;33.10;24.00;;;16.00;99.90;;;;;;5052089;28;20853;-69
2023/10/09 10:39:19;;;;;;;26.20;22.87;;;16.00;99.90;;;;;;5053688;28;20426;-69
2023/10/09 10:41:56;;;;;;;33.27;23.27;;;16.00;99.90;;;;;;5053642;28;20819;-69
2023/10/09 10:44:37;;;;;;;34.43;24.50;;;16.10;99.90;;;;;;5052971;28;20879;-69
2023/10/09 10:47:22;;;;;;;31.77;23.23;;;16.10;99.90;;;;;;5053818;28;20509;-69
2023/10/09 10:49:51;;;;;;;33.57;23.03;;;16.10;99.90;;;;;;5053660;28;20433;-69
2023/10/09 10:52:22;;;;;;;30.50;23.43;;;16.10;99.90;;;;;;5053312;28;20557;-69
2023/10/09 10:57:53;;;;;;;25.77;22.67;;;16.20;99.90;;;;;;5051995;28;20797;-69
2023/10/09 11:03:18;;;;;;;24.57;19.40;;;16.20;99.90;;;;;;5053061;28;20504;-70
2023/10/09 11:05:51;;;;;;;30.33;19.37;;;16.20;99.90;;;;;;5053349;28;20432;-70
2023/10/09 11:08:31;;;;;;;22.50;18.43;;;16.20;99.90;;;;;;5053043;28;20401;-70
2023/10/09 11:11:15;;;;;;;25.30;19.67;;;16.30;99.90;;;;;;5053084;28;20907;-70
2023/10/09 11:13:57;;;;;;;29.83;19.93;;;16.30;99.90;;;;;;5053314;28;20397;-69
2023/10/09 11:16:47;;;;;;;26.30;18.90;;;16.30;99.90;;;;;;5052979;28;20503;-70
2023/10/09 11:19:32;;;;;;;28.03;19.47;;;16.30;99.90;;;;;;5053383;28;20839;-70
2023/10/09 11:25:10;;;;;;;25.37;17.93;;;16.30;99.90;;;;;;5053068;28;20556;-69
2023/10/09 11:27:40;;;;;;;21.73;17.40;;;16.30;99.90;;;;;;5051651;28;20441;-69
2023/10/09 11:30:21;;;;;;;22.40;17.83;;;16.40;99.90;;;;;;5052849;28;20419;-70
2023/10/09 11:32:49;;;;;;;21.37;16.80;;;16.40;99.90;;;;;;5053120;28;20418;-69
2023/10/09 11:35:26;;;;;;;23.37;16.90;;;16.40;99.90;;;;;;5052835;28;20454;-70
2023/10/09 11:37:56;;;;;;;23.03;17.17;;;16.50;99.90;;;;;;5051564;28;20499;-69
2023/10/09 11:41:06;;;;;;;22.00;16.60;;;16.50;99.90;;;;;;5053194;28;20414;-70
2023/10/09 11:43:36;;;;;;;18.93;15.10;;;16.50;99.90;;;;;;5053024;28;20413;-70
2023/10/09 11:46:13;;;;;;;16.83;14.23;;;16.50;99.90;;;;;;5051390;28;20468;-69
2023/10/09 11:48:47;;;;;;;17.70;14.47;;;16.60;99.90;;;;;;5051432;28;20935;-69
2023/10/09 11:51:19;;;;;;;17.00;14.30;;;16.60;99.90;;;;;;5052919;28;20967;-70
2023/10/09 11:53:49;;;;;;;16.17;12.90;;;16.60;99.90;;;;;;5051524;28;20413;-70
2023/10/09 11:56:19;;;;;;;14.00;12.17;;;16.70;99.90;;;;;;5055895;28;20450;-70
2023/10/09 11:58:49;;;;;;;12.10;10.23;;;16.70;99.90;;;;;;5056870;28;20409;-69
2023/10/09 12:01:21;;;;;;;13.47;9.73;;;16.70;99.90;;;;;;5055097;28;20553;-70
2023/10/09 12:03:50;;;;;;;10.63;8.53;;;16.80;99.90;;;;;;5056182;28;20511;-70
2023/10/09 12:06:22;;;;;;;11.70;8.03;;;16.80;99.90;;;;;;5056454;28;20849;-70
2023/10/09 12:08:51;;;;;;;9.23;8.20;;;16.80;99.90;;;;;;5054940;28;20536;-70
2023/10/09 12:11:22;;;;;;;8.40;7.57;;;16.90;99.90;;;;;;5056036;28;20419;-70
2023/10/09 12:13:56;;;;;;;8.37;7.47;;;16.90;99.90;;;;;;5054816;28;20845;-70
2023/10/09 12:16:27;;;;;;;10.40;6.73;;;16.90;99.90;;;;;;5056008;28;20451;-70
2023/10/09 12:18:56;;;;;;;8.27;6.27;;;16.90;99.90;;;;;;5055962;28;20407;-69
2023/10/09 12:21:27;;;;;;;9.80;6.50;;;17.00;99.90;;;;;;5055922;28;20415;-70
2023/10/09 12:23:57;;;;;;;7.03;5.50;;;17.00;99.90;;;;;;5055680;28;20465;-70
2023/10/09 12:26:34;;;;;;;8.00;5.50;;;17.00;99.90;;;;;;5054390;28;21039;-70
2023/10/09 12:29:03;;;;;;;8.53;5.47;;;17.10;99.90;;;;;;5055966;28;20404;-70
2023/10/09 12:31:33;;;;;;;7.93;5.63;;;17.10;99.90;;;;;;5055731;28;20940;-70
2023/10/09 12:34:02;;;;;;;6.50;5.83;;;17.10;99.90;;;;;;5056298;28;20393;-70
2023/10/09 12:36:37;;;;;;;5.83;5.17;;;17.10;99.90;;;;;;5056752;28;20935;-70
2023/10/09 12:39:05;;;;;;;8.13;6.17;;;17.10;99.90;;;;;;5055923;28;20495;-70
2023/10/09 12:41:35;;;;;;;5.43;4.90;;;17.10;99.90;;;;;;5054367;28;20423;-70
2023/10/09 12:44:04;;;;;;;8.30;5.23;;;17.20;99.90;;;;;;5055357;28;20470;-70
2023/10/09 12:46:37;;;;;;;4.93;4.33;;;17.20;99.90;;;;;;5056347;28;20428;-70
2023/10/09 12:49:06;;;;;;;4.73;4.23;;;17.20;99.90;;;;;;5055401;28;20423;-70
2023/10/09 12:51:34;;;;;;;8.20;5.23;;;17.20;99.90;;;;;;5054021;28;20498;-70
2023/10/09 12:54:02;;;;;;;8.47;4.70;;;17.20;99.90;;;;;;5055270;28;20413;-70
2023/10/09 12:56:37;;;;;;;9.80;5.03;;;17.20;99.90;;;;;;5053895;28;20437;-70
2023/10/09 12:59:07;;;;;;;5.77;4.37;;;17.20;99.90;;;;;;5054139;28;20412;-70
2023/10/09 13:01:43;;;;;;;10.60;4.70;;;17.20;99.90;;;;;;5053935;28;20438;-70
2023/10/09 13:04:13;;;;;;;5.10;4.40;;;17.20;99.90;;;;;;5055029;28;20429;-70
2023/10/09 13:06:43;;;;;;;5.17;3.90;;;17.20;99.90;;;;;;5054818;28;20500;-70
2023/10/09 13:09:13;;;;;;;5.70;4.67;;;17.20;99.90;;;;;;5053764;28;20911;-70
2023/10/09 13:11:42;;;;;;;5.53;4.10;;;17.20;99.90;;;;;;5054945;28;20488;-70
2023/10/09 13:14:16;;;;;;;7.17;5.00;;;17.20;99.90;;;;;;5055181;28;20470;-70
2023/10/09 13:16:47;;;;;;;6.83;4.60;;;17.20;99.90;;;;;;5054836;28;20460;-70
2023/10/09 13:19:15;;;;;;;5.00;4.23;;;17.20;99.90;;;;;;5054816;28;20457;-70
2023/10/09 13:21:43;;;;;;;7.40;4.80;;;17.20;99.90;;;;;;5053479;28;20459;-70
2023/10/09 13:24:15;;;;;;;5.00;4.50;;;17.20;99.90;;;;;;5053384;28;20473;-70
2023/10/09 13:26:45;;;;;;;6.20;3.77;;;17.20;99.90;;;;;;5054831;28;20552;-70
2023/10/09 13:29:22;;;;;;;8.00;4.60;;;17.20;99.90;;;;;;5054652;28;20524;-70
2023/10/09 13:32:02;;;;;;;5.47;4.23;;;17.20;99.90;;;;;;5054608;28;20471;-70
2023/10/09 13:34:33;;;;;;;5.20;4.50;;;17.20;99.90;;;;;;5054722;28;20393;-70
2023/10/09 13:37:11;;;;;;;6.93;4.57;;;17.20;99.90;;;;;;5055063;28;20426;-70
2023/10/09 13:39:40;;;;;;;6.77;4.60;;;17.20;99.90;;;;;;5054351;28;20405;-70
2023/10/09 13:42:08;;;;;;;7.17;4.60;;;17.20;99.90;;;;;;5054293;28;20408;-70
2023/10/09 13:44:37;;;;;;;5.63;4.30;;;17.20;99.90;;;;;;5054393;28;20467;-70
2023/10/09 13:47:09;;;;;;;7.17;4.17;;;17.20;99.90;;;;;;5052920;28;20486;-70
2023/10/09 13:49:40;;;;;;;10.17;4.70;;;17.20;99.90;;;;;;5054476;28;20432;-70
2023/10/09 13:52:17;;;;;;;5.37;4.23;;;17.30;99.90;;;;;;5054107;28;20549;-70
2023/10/09 13:54:49;;;;;;;5.90;4.57;;;17.30;99.90;;;;;;5054564;28;20532;-70
2023/10/09 13:57:21;;;;;;;7.50;4.60;;;17.20;99.90;;;;;;5054119;28;20418;-70
2023/10/09 13:59:50;;;;;;;8.67;4.97;;;17.20;99.90;;;;;;5052727;28;20462;-70
2023/10/09 14:02:21;;;;;;;7.77;4.80;;;17.30;99.90;;;;;;5054232;28;20902;-70
2023/10/09 14:04:50;;;;;;;8.63;6.00;;;17.30;99.90;;;;;;5054333;28;20500;-70
2023/10/09 14:07:20;;;;;;;6.97;4.00;;;17.30;99.90;;;;;;5053931;28;20442;-70
2023/10/09 14:10:06;;;;;;;7.20;3.90;;;17.30;99.90;;;;;;5053948;28;20413;-70